Time;durP1;ratioP1;P1;durP2;ratioP2;P2;SDS_P1;SDS_P2;PMS_P1;PMS_P2;Temp;Humidity;BMP_temperature;BMP_pressure;BME280_temperature;BME280_humidity;BME280_pressure;Samples;Min_cycle;Max_cycle;Signal;HPM_P1;HPM_P2
2021/03/07 00:00:10;;;;;;;;;;;;;;;14.22;56.05;100588.91;5029429;28;19921;-66
2021/03/07 00:02:36;;;;;;;;;;;;;;;14.27;56.04;100590.81;5025850;28;19965;-65
2021/03/07 00:05:03;;;;;;;;;;;;;;;14.30;55.89;100587.41;5029889;28;20263;-66
2021/03/07 00:07:29;;;;;;;;;;;;;;;14.30;55.98;100590.22;5027850;28;19928;-65
2021/03/07 00:09:55;;;;;;;;;;;;;;;14.29;56.14;100595.00;5029910;28;19927;-65
2021/03/07 00:12:21;;;;;;;;;;;;;;;14.23;56.20;100587.78;5024911;28;19929;-65
2021/03/07 00:14:48;;;;;;;;;;;;;;;14.24;56.13;100586.66;5029576;28;20011;-65
2021/03/07 00:17:14;;;;;;;;;;;;;;;14.24;56.07;100592.25;5029934;28;20071;-64
2021/03/07 00:19:41;;;;;;;;;;;;;;;14.25;55.84;100588.31;5029548;28;19921;-66
2021/03/07 00:22:07;;;;;;;;;;;;;;;14.27;55.61;100591.66;5027423;28;20377;-65
2021/03/07 00:24:33;;;;;;;;;;;;;;;14.28;55.51;100584.88;5030730;28;19921;-65
2021/03/07 00:26:59;;;;;;;;;;;;;;;14.28;55.48;100582.09;5026138;28;20012;-65
2021/03/07 00:29:27;;;;;;;;;;;;;;;14.25;55.51;100576.25;5026494;28;20457;-66
2021/03/07 00:31:53;;;;;;;;;;;;;;;14.22;55.60;100577.69;5024971;28;19936;-66
2021/03/07 00:34:20;;;;;;;;;;;;;;;14.21;55.64;100573.22;5027875;28;19928;-64
2021/03/07 00:36:46;;;;;;;;;;;;;;;14.19;55.78;100579.16;5028568;28;20000;-65
2021/03/07 00:39:12;;;;;;;;;;;;;;;14.15;55.96;100578.09;5030525;28;19967;-63
2021/03/07 00:41:40;;;;;;;;;;;;;;;14.09;56.25;100573.69;5027891;28;19921;-66
2021/03/07 00:44:07;;;;;;;;;;;;;;;13.97;56.68;100576.91;5024984;28;20015;-65
2021/03/07 00:46:34;;;;;;;;;;;;;;;13.86;57.11;100574.56;5025948;28;20333;-64
2021/03/07 00:49:00;;;;;;;;;;;;;;;13.77;57.37;100570.75;5026303;28;19988;-62
2021/03/07 00:51:26;;;;;;;;;;;;;;;13.71;57.66;100567.22;5027698;28;19990;-64
2021/03/07 00:53:53;;;;;;;;;;;;;;;13.66;57.83;100570.06;5026880;28;20330;-64
2021/03/07 00:56:19;;;;;;;;;;;;;;;13.56;58.24;100564.59;5023488;28;20342;-62
2021/03/07 00:58:45;;;;;;;;;;;;;;;13.49;58.30;100571.41;5026764;28;20091;-63
2021/03/07 01:01:11;;;;;;;;;;;;;;;13.52;58.23;100572.78;5028479;28;20028;-62
2021/03/07 01:03:37;;;;;;;;;;;;;;;13.55;57.79;100580.59;5027815;28;19967;-65
2021/03/07 01:06:04;;;;;;;;;;;;;;;13.59;57.83;100569.59;5027284;28;19921;-64
2021/03/07 01:08:30;;;;;;;;;;;;;;;13.60;57.73;100574.91;5028871;28;19925;-64
2021/03/07 01:10:56;;;;;;;;;;;;;;;13.63;57.42;100567.88;5026347;28;20023;-68
2021/03/07 01:13:23;;;;;;;;;;;;;;;13.65;57.27;100576.81;5026356;28;20365;-67
2021/03/07 01:15:49;;;;;;;;;;;;;;;13.65;57.16;100572.03;5028757;28;20014;-68
2021/03/07 01:18:16;;;;;;;;;;;;;;;13.68;57.02;100576.22;5024013;28;19929;-67
2021/03/07 01:20:44;;;;;;;;;;;;;;;13.73;56.70;100576.16;5026385;28;20019;-67
2021/03/07 01:23:11;;;;;;;;;;;;;;;13.77;56.58;100573.56;5027651;28;20399;-61
2021/03/07 01:25:37;;;;;;;;;;;;;;;13.82;56.38;100573.50;5027524;28;20347;-62
2021/03/07 01:28:06;;;;;;;;;;;;;;;13.84;56.13;100574.03;5024180;28;20032;-62
2021/03/07 01:30:33;;;;;;;;;;;;;;;13.87;56.09;100577.06;5023692;28;19920;-60
2021/03/07 01:33:00;;;;;;;;;;;;;;;13.89;55.91;100583.22;5025678;28;19925;-63
2021/03/07 01:35:26;;;;;;;;;;;;;;;13.91;55.89;100577.28;5029968;28;19931;-62
2021/03/07 01:37:52;;;;;;;;;;;;;;;13.91;55.48;100575.34;5025257;28;19935;-65
2021/03/07 01:40:20;;;;;;;;;;;;;;;13.90;55.63;100576.47;5023040;28;20019;-65
2021/03/07 01:42:47;;;;;;;;;;;;;;;13.87;55.60;100565.84;5028517;28;20019;-65
2021/03/07 01:45:17;;;;;;;;;;;;;;;13.84;55.87;100560.81;5029559;28;20421;-65
2021/03/07 01:47:45;;;;;;;;;;;;;;;13.75;56.23;100562.66;5026358;28;20385;-65
2021/03/07 01:50:13;;;;;;;;;;;;;;;13.72;56.44;100560.44;5026791;28;20029;-65
2021/03/07 01:52:40;;;;;;;;;;;;;;;13.64;57.01;100555.50;5027598;28;19996;-64
2021/03/07 01:55:06;;;;;;;;;;;;;;;13.45;57.82;100559.09;5027244;28;20337;-65
2021/03/07 01:57:34;;;;;;;;;;;;;;;13.29;58.57;100549.19;5026733;28;19946;-63
2021/03/07 02:00:00;;;;;;;;;;;;;;;13.10;59.36;100549.13;5025785;28;19921;-65
2021/03/07 02:02:27;;;;;;;;;;;;;;;12.93;59.94;100551.56;5026334;28;20004;-62
2021/03/07 02:04:53;;;;;;;;;;;;;;;12.75;60.57;100544.72;5026403;28;19929;-65
2021/03/07 02:07:20;;;;;;;;;;;;;;;12.60;61.30;100551.31;5027178;28;19921;-64
2021/03/07 02:09:50;;;;;;;;;;;;;;;12.49;61.49;100552.53;5027929;28;20019;-66
2021/03/07 02:12:18;;;;;;;;;;;;;;;12.38;61.84;100557.41;5026129;28;20079;-66
2021/03/07 02:14:45;;;;;;;;;;;;;;;12.31;62.38;100546.53;5027536;28;19927;-65
2021/03/07 02:17:12;;;;;;;;;;;;;;;12.26;62.66;100548.53;5025813;28;19971;-66
2021/03/07 02:19:39;;;;;;;;;;;;;;;12.24;62.71;100547.97;5026952;28;19932;-64
2021/03/07 02:22:07;;;;;;;;;;;;;;;12.22;62.96;100550.25;5023901;28;19922;-64
2021/03/07 02:24:34;;;;;;;;;;;;;;;12.17;63.06;100539.06;5026247;28;19924;-66
2021/03/07 02:27:01;;;;;;;;;;;;;;;12.14;63.23;100542.47;5026734;28;19931;-67
2021/03/07 02:29:27;;;;;;;;;;;;;;;12.08;63.30;100542.50;5025961;28;20020;-67
2021/03/07 02:31:56;;;;;;;;;;;;;;;12.02;63.77;100542.81;5027063;28;19925;-66
2021/03/07 02:34:28;;;;;;;;;;;;;;;12.03;63.82;100544.47;5021912;28;20327;-66
2021/03/07 02:36:57;;;;;;;;;;;;;;;12.03;63.72;100536.94;5025929;28;20020;-62
2021/03/07 02:39:28;;;;;;;;;;;;;;;12.03;63.67;100530.50;5026364;28;19921;-63
2021/03/07 02:41:58;;;;;;;;;;;;;;;12.03;63.71;100533.28;5027650;28;19963;-64
2021/03/07 02:44:25;;;;;;;;;;;;;;;12.01;63.83;100530.78;5026220;28;19976;-64
2021/03/07 02:46:52;;;;;;;;;;;;;;;11.97;63.91;100532.50;5026346;28;20011;-65
2021/03/07 02:49:19;;;;;;;;;;;;;;;11.94;64.13;100532.25;5028057;28;19921;-64
2021/03/07 02:51:47;;;;;;;;;;;;;;;11.91;64.31;100530.03;5031606;28;19925;-64
2021/03/07 02:54:17;;;;;;;;;;;;;;;11.89;64.39;100527.50;5027388;28;19995;-64
2021/03/07 02:56:45;;;;;;;;;;;;;;;11.91;64.22;100516.88;5029555;28;20401;-65
2021/03/07 02:59:16;;;;;;;;;;;;;;;11.91;64.26;100530.03;5030447;28;19925;-65
2021/03/07 03:01:43;;;;;;;;;;;;;;;11.90;64.10;100512.41;5029864;28;19956;-63
2021/03/07 03:04:09;;;;;;;;;;;;;;;11.88;64.32;100514.66;5030255;28;20039;-63
2021/03/07 03:06:37;;;;;;;;;;;;;;;11.90;64.05;100514.34;5031689;28;20008;-67
2021/03/07 03:09:04;;;;;;;;;;;;;;;12.06;63.44;100518.72;5026939;28;19939;-67
2021/03/07 03:11:32;;;;;;;;;;;;;;;12.23;62.92;100509.91;5030169;28;19921;-68
2021/03/07 03:13:59;;;;;;;;;;;;;;;12.16;63.19;100504.63;5028661;28;20721;-67
2021/03/07 03:16:27;;;;;;;;;;;;;;;12.08;63.39;100514.50;5031903;28;20488;-66
2021/03/07 03:18:54;;;;;;;;;;;;;;;12.05;63.34;100508.66;5029620;28;19929;-66
2021/03/07 03:21:20;;;;;;;;;;;;;;;11.99;63.49;100505.03;5030795;28;19943;-66
2021/03/07 03:23:47;;;;;;;;;;;;;;;11.99;63.55;100499.44;5028897;28;19929;-65
2021/03/07 03:26:14;;;;;;;;;;;;;;;11.96;63.55;100500.03;5030254;28;20023;-67
2021/03/07 03:28:40;;;;;;;;;;;;;;;11.88;63.74;100500.66;5025819;28;19968;-66
2021/03/07 03:31:07;;;;;;;;;;;;;;;11.82;64.12;100505.41;5028369;28;19931;-64
2021/03/07 03:33:33;;;;;;;;;;;;;;;11.80;64.32;100506.84;5029932;28;20349;-65
2021/03/07 03:35:59;;;;;;;;;;;;;;;11.77;64.39;100501.84;5029236;28;19925;-64
2021/03/07 03:38:37;;;;;;;;;;;;;;;11.74;64.47;100496.81;5027889;28;19921;-67
2021/03/07 03:41:04;;;;;;;;;;;;;;;11.72;64.59;100499.88;5029742;28;20019;-67
2021/03/07 03:43:47;;;;;;;;;;;;;;;11.69;64.39;100503.28;5017250;28;20012;-73
2021/03/07 03:46:14;;;;;;;;;;;;;;;11.67;64.67;100497.13;5027950;28;20008;-65
2021/03/07 03:48:43;;;;;;;;;;;;;;;11.64;64.53;100503.31;5027651;28;19960;-64
2021/03/07 03:51:10;;;;;;;;;;;;;;;11.61;64.62;100504.72;5029233;28;19921;-65
2021/03/07 03:53:37;;;;;;;;;;;;;;;11.60;64.65;100496.63;5028846;28;20402;-65
2021/03/07 03:56:03;;;;;;;;;;;;;;;11.58;64.60;100490.47;5029022;28;19952;-65
2021/03/07 03:58:32;;;;;;;;;;;;;;;11.49;64.87;100500.59;5031217;28;20437;-62
2021/03/07 04:00:58;;;;;;;;;;;;;;;11.42;65.03;100489.75;5026487;28;19947;-63
2021/03/07 04:03:24;;;;;;;;;;;;;;;11.42;64.95;100498.13;5029353;28;19925;-62
2021/03/07 04:05:52;;;;;;;;;;;;;;;11.45;65.05;100500.31;5026221;28;19925;-63
2021/03/07 04:08:20;;;;;;;;;;;;;;;11.50;64.91;100497.50;5025678;28;19925;-63
2021/03/07 04:10:46;;;;;;;;;;;;;;;11.47;64.87;100492.50;5029127;28;19925;-62
2021/03/07 04:13:15;;;;;;;;;;;;;;;11.42;65.02;100500.91;5026702;28;20293;-63
2021/03/07 04:15:42;;;;;;;;;;;;;;;11.38;64.98;100499.81;5028123;28;19971;-63
2021/03/07 04:18:10;;;;;;;;;;;;;;;11.37;65.02;100501.75;5028824;28;19960;-65
2021/03/07 04:20:37;;;;;;;;;;;;;;;11.38;65.20;100508.19;5029631;28;20020;-63
2021/03/07 04:23:03;;;;;;;;;;;;;;;11.35;65.26;100512.41;5026486;28;19995;-63
2021/03/07 04:25:30;;;;;;;;;;;;;;;11.27;65.41;100503.78;5026367;28;19964;-64
2021/03/07 04:27:56;;;;;;;;;;;;;;;11.24;65.59;100510.78;5026312;28;19945;-63
2021/03/07 04:30:23;;;;;;;;;;;;;;;11.29;65.71;100509.94;5027229;28;20004;-63
2021/03/07 04:32:53;;;;;;;;;;;;;;;11.34;65.56;100509.88;5028726;28;19976;-63
2021/03/07 04:35:20;;;;;;;;;;;;;;;11.36;65.31;100513.25;5027203;28;20058;-62
2021/03/07 04:37:46;;;;;;;;;;;;;;;11.38;65.31;100510.97;5024365;28;20024;-63
2021/03/07 04:40:12;;;;;;;;;;;;;;;11.37;65.42;100507.34;5025528;28;20410;-62
2021/03/07 04:42:40;;;;;;;;;;;;;;;11.32;65.63;100509.34;5027102;28;20348;-62
2021/03/07 04:45:06;;;;;;;;;;;;;;;11.28;65.71;100514.69;5027838;28;20115;-63
2021/03/07 04:47:33;;;;;;;;;;;;;;;11.24;66.32;100509.94;5026429;28;20026;-61
2021/03/07 04:49:59;;;;;;;;;;;;;;;11.24;66.53;100507.13;5030338;28;19920;-62
2021/03/07 04:52:25;;;;;;;;;;;;;;;11.19;67.62;100508.00;5027560;28;19929;-63
2021/03/07 04:54:51;;;;;;;;;;;;;;;11.13;68.27;100507.19;5028128;28;20006;-62
2021/03/07 04:57:18;;;;;;;;;;;;;;;11.06;68.63;100503.84;5027309;28;19968;-65
2021/03/07 04:59:44;;;;;;;;;;;;;;;11.08;68.87;100510.00;5028370;28;19933;-67
2021/03/07 05:02:10;;;;;;;;;;;;;;;11.09;68.60;100508.88;5026886;28;20342;-64
2021/03/07 05:04:36;;;;;;;;;;;;;;;11.08;68.99;100507.22;5025857;28;20636;-62
2021/03/07 05:07:03;;;;;;;;;;;;;;;11.09;69.05;100505.25;5026972;28;19922;-61
2021/03/07 05:09:29;;;;;;;;;;;;;;;11.04;68.83;100497.75;5029135;28;19952;-64
2021/03/07 05:11:55;;;;;;;;;;;;;;;10.98;68.89;100504.47;5027300;28;19960;-61
2021/03/07 05:14:22;;;;;;;;;;;;;;;10.92;68.83;100505.59;5025637;28;19963;-62
2021/03/07 05:16:48;;;;;;;;;;;;;;;10.85;68.71;100502.25;5027907;28;20291;-60
2021/03/07 05:19:14;;;;;;;;;;;;;;;10.83;68.79;100512.88;5026356;28;19929;-61
2021/03/07 05:21:41;;;;;;;;;;;;;;;10.81;68.74;100510.38;5026708;28;20019;-68
2021/03/07 05:24:07;;;;;;;;;;;;;;;10.84;68.79;100511.78;5026305;28;20008;-69
2021/03/07 05:26:33;;;;;;;;;;;;;;;10.85;68.56;100516.22;5024048;28;20289;-66
2021/03/07 05:29:00;;;;;;;;;;;;;;;10.87;68.80;100516.75;5027664;28;19922;-67
2021/03/07 05:31:26;;;;;;;;;;;;;;;10.91;68.56;100515.94;5026666;28;19979;-66
2021/03/07 05:33:52;;;;;;;;;;;;;;;10.94;69.08;100516.47;5027900;28;19925;-65
2021/03/07 05:36:18;;;;;;;;;;;;;;;10.93;69.30;100515.63;5027541;28;20401;-65
2021/03/07 05:38:45;;;;;;;;;;;;;;;10.97;69.36;100521.50;5026493;28;20378;-67
2021/03/07 05:41:14;;;;;;;;;;;;;;;10.98;69.31;100512.84;5027042;28;20337;-72
2021/03/07 05:43:41;;;;;;;;;;;;;;;10.97;69.43;100511.16;5022059;28;19987;-72
2021/03/07 05:46:07;;;;;;;;;;;;;;;10.93;69.16;100510.03;5024789;28;20304;-70
2021/03/07 05:48:34;;;;;;;;;;;;;;;10.95;68.86;100516.19;5027198;28;19928;-76
2021/03/07 05:51:00;;;;;;;;;;;;;;;10.96;68.84;100515.06;5023492;28;19925;-76
2021/03/07 05:53:28;;;;;;;;;;;;;;;10.90;68.60;100516.19;5025758;28;20411;-72
2021/03/07 05:55:55;;;;;;;;;;;;;;;10.82;68.95;100519.59;5024291;28;19925;-69
2021/03/07 05:58:21;;;;;;;;;;;;;;;10.73;69.12;100508.13;5027877;28;20378;-70
2021/03/07 06:00:47;;;;;;;;;;;;;;;10.66;69.19;100508.44;5026729;28;20015;-74
2021/03/07 06:03:13;;;;;;;;;;;;;;;10.63;69.19;100520.19;5022226;28;22016;-67
2021/03/07 06:05:40;;;;;;;;;;;;;;;10.62;69.06;100504.53;5026943;28;20308;-67
2021/03/07 06:08:06;;;;;;;;;;;;;;;10.66;69.15;100510.41;5024319;28;20324;-67
2021/03/07 06:10:32;;;;;;;;;;;;;;;10.70;68.79;100516.25;5027561;28;19972;-68
2021/03/07 06:13:10;;;;;;;;;;;;;;;10.65;69.05;100506.75;5024421;28;20011;-67
2021/03/07 06:16:05;;;;;;;;;;;;;;;10.65;68.88;100514.31;5027294;28;19936;-68
2021/03/07 06:18:38;;;;;;;;;;;;;;;10.63;68.81;100523.00;5023779;28;20372;-68
2021/03/07 06:21:24;;;;;;;;;;;;;;;10.62;68.93;100515.72;5026496;28;20456;-72
2021/03/07 06:23:50;;;;;;;;;;;;;;;10.60;68.93;100517.97;5026055;28;19921;-69
2021/03/07 06:26:17;;;;;;;;;;;;;;;10.59;68.78;100505.09;5025681;28;20012;-69
2021/03/07 06:28:43;;;;;;;;;;;;;;;10.60;68.76;100517.97;5031405;28;20051;-69
2021/03/07 06:31:29;;;;;;;;;;;;;;;10.62;68.77;100515.72;5027444;28;22672;-68
2021/03/07 06:33:56;;;;;;;;;;;;;;;10.60;68.78;100505.97;5024259;28;20000;-68
2021/03/07 06:36:23;;;;;;;;;;;;;;;10.62;68.81;100512.91;5033004;28;20355;-68
2021/03/07 06:38:50;;;;;;;;;;;;;;;10.67;68.36;100510.13;5030859;28;20008;-68
2021/03/07 06:41:20;;;;;;;;;;;;;;;10.74;68.10;100506.22;5028693;28;20007;-66
2021/03/07 06:43:47;;;;;;;;;;;;;;;10.83;67.67;100508.13;5026484;28;19926;-64
2021/03/07 06:46:26;;;;;;;;;;;;;;;10.93;67.45;100512.84;5028255;28;19963;-66
2021/03/07 06:48:53;;;;;;;;;;;;;;;11.05;66.86;100513.38;5030963;28;19925;-65
2021/03/07 06:51:26;;;;;;;;;;;;;;;11.08;66.63;100512.81;5027967;28;19979;-69
2021/03/07 06:53:53;;;;;;;;;;;;;;;11.02;66.61;100513.09;5029099;28;19921;-70
2021/03/07 06:56:38;;;;;;;;;;;;;;;10.99;66.72;100506.13;5029672;28;20343;-65
2021/03/07 06:59:07;;;;;;;;;;;;;;;10.99;66.73;100513.69;5026826;28;19991;-61
2021/03/07 07:01:38;;;;;;;;;;;;;;;10.99;66.55;100516.47;5030883;28;20434;-58
2021/03/07 07:04:04;;;;;;;;;;;;;;;11.09;66.22;100513.63;5027323;28;20016;-60
2021/03/07 07:06:35;;;;;;;;;;;;;;;11.21;65.91;100522.53;5029720;28;19925;-61
2021/03/07 07:09:02;;;;;;;;;;;;;;;11.34;65.50;100521.06;5026728;28;20384;-65
2021/03/07 07:11:28;;;;;;;;;;;;;;;11.41;65.46;100510.41;5029982;28;20016;-60
2021/03/07 07:13:54;;;;;;;;;;;;;;;11.48;65.26;100510.94;5029239;28;19929;-61
2021/03/07 07:16:35;;;;;;;;;;;;;;;11.57;64.87;100517.59;5027220;28;20050;-63
2021/03/07 07:19:03;;;;;;;;;;;;;;;11.67;64.64;100525.09;5027581;28;19920;-59
2021/03/07 07:21:29;;;;;;;;;;;;;;;11.75;64.55;100529.25;5026838;28;20035;-60
2021/03/07 07:23:55;;;;;;;;;;;;;;;11.79;64.50;100530.34;5026153;28;19921;-59
2021/03/07 07:26:21;;;;;;;;;;;;;;;11.77;64.56;100529.81;5025546;28;19944;-61
2021/03/07 07:28:52;;;;;;;;;;;;;;;11.84;64.46;100531.19;5026350;28;19932;-58
2021/03/07 07:31:21;;;;;;;;;;;;;;;11.92;64.30;100532.53;5027634;28;20004;-56
2021/03/07 07:33:53;;;;;;;;;;;;;;;12.01;64.14;100528.00;5024116;28;19921;-62
2021/03/07 07:36:22;;;;;;;;;;;;;;;12.14;64.10;100525.69;5023283;28;19964;-62
2021/03/07 07:38:49;;;;;;;;;;;;;;;12.25;63.63;100535.66;5027434;28;19925;-61
2021/03/07 07:41:34;;;;;;;;;;;;;;;12.36;63.49;100531.63;5025302;28;20000;-58
2021/03/07 07:44:01;;;;;;;;;;;;;;;12.48;63.42;100537.72;5027051;28;20040;-59
2021/03/07 07:46:33;;;;;;;;;;;;;;;12.53;63.66;100537.63;5028859;28;19924;-58
2021/03/07 07:49:00;;;;;;;;;;;;;;;12.61;63.62;100546.53;5022936;28;19930;-57
2021/03/07 07:51:37;;;;;;;;;;;;;;;12.68;63.29;100538.63;5024463;28;19929;-58
2021/03/07 07:54:05;;;;;;;;;;;;;;;12.76;63.13;100552.84;5024770;28;19927;-57
2021/03/07 07:56:35;;;;;;;;;;;;;;;12.79;63.35;100543.03;5028292;28;20406;-58
2021/03/07 07:59:02;;;;;;;;;;;;;;;12.88;63.78;100554.41;5026719;28;19921;-57
2021/03/07 08:01:48;;;;;;;;;;;;;;;13.05;63.81;100546.38;5023654;28;19920;-58
2021/03/07 08:04:27;;;;;;;;;;;;;;;12.98;63.01;100487.03;5023201;28;19925;-57
2021/03/07 08:06:57;;;;;;;;;;;;;;;13.72;62.84;100552.03;5027539;28;20012;-59
2021/03/07 08:09:33;;;;;;;;;;;;;;;14.82;59.75;100552.53;5024358;28;20011;-58
2021/03/07 08:11:59;;;;;;;;;;;;;;;15.20;59.16;100557.19;5026465;28;19964;-58
2021/03/07 08:14:35;;;;;;;;;;;;;;;15.48;58.82;100552.38;5025262;28;20015;-58
2021/03/07 08:17:30;;;;;;;;;;;;;;;15.84;58.54;100546.84;5026706;28;19928;-58
2021/03/07 08:19:56;;;;;;;;;;;;;;;16.14;57.97;100544.44;5024070;28;19936;-58
2021/03/07 08:22:22;;;;;;;;;;;;;;;16.31;57.73;100556.72;5026167;28;20282;-59
2021/03/07 08:24:50;;;;;;;;;;;;;;;16.46;57.60;100557.50;5021430;28;19921;-59
2021/03/07 08:27:35;;;;;;;;;;;;;;;16.62;57.71;100553.16;5026020;28;19929;-59
2021/03/07 08:30:03;;;;;;;;;;;;;;;16.86;57.66;100552.81;5027582;28;20008;-59
2021/03/07 08:32:29;;;;;;;;;;;;;;;17.08;57.48;100566.03;5025895;28;19964;-58
2021/03/07 08:35:00;;;;;;;;;;;;;;;17.35;57.36;100561.34;5024564;28;20263;-58
2021/03/07 08:37:27;;;;;;;;;;;;;;;17.57;56.93;100566.91;5031053;28;19920;-59
2021/03/07 08:40:12;;;;;;;;;;;;;;;17.89;56.76;100570.53;5030955;28;19920;-58
2021/03/07 08:42:38;;;;;;;;;;;;;;;18.05;56.82;100577.38;5030631;28;20019;-58
2021/03/07 08:45:20;;;;;;;;;;;;;;;18.22;56.30;100580.22;5030323;28;20027;-58
2021/03/07 08:47:52;;;;;;;;;;;;;;;18.50;55.83;100579.06;5030354;28;19957;-59
2021/03/07 08:50:20;;;;;;;;;;;;;;;18.68;55.43;100590.00;5030156;28;19921;-59
2021/03/07 08:52:46;;;;;;;;;;;;;;;18.90;55.44;100596.66;5029416;28;19921;-58
2021/03/07 08:55:13;;;;;;;;;;;;;;;19.10;55.00;100598.78;5029869;28;19928;-58
2021/03/07 08:57:43;;;;;;;;;;;;;;;19.26;54.89;100592.59;5031391;28;20019;-58
2021/03/07 09:00:10;;;;;;;;;;;;;;;19.60;54.41;100597.28;5030580;28;19920;-57
2021/03/07 09:02:37;;;;;;;;;;;;;;;19.80;54.22;100602.19;5030311;28;19924;-60
2021/03/07 09:05:06;;;;;;;;;;;;;;;20.06;53.46;100593.53;5029116;28;19924;-56
2021/03/07 09:07:32;;;;;;;;;;;;;;;20.36;53.26;100602.00;5029943;28;20001;-58
2021/03/07 09:09:58;;;;;;;;;;;;;;;20.68;52.75;100594.72;5030250;28;19975;-58
2021/03/07 09:12:42;;;;;;;;;;;;;;;21.02;51.99;100599.22;5029176;28;19921;-58
2021/03/07 09:15:09;;;;;;;;;;;;;;;21.17;51.81;100594.09;5030497;28;19925;-59
2021/03/07 09:17:50;;;;;;;;;;;;;;;21.44;51.56;100604.81;5030453;28;20004;-59
2021/03/07 09:20:17;;;;;;;;;;;;;;;21.63;51.39;100600.56;5029940;28;20343;-58
2021/03/07 09:22:43;;;;;;;;;;;;;;;21.75;50.91;100592.88;5030419;28;19932;-60
2021/03/07 09:25:10;;;;;;;;;;;;;;;21.99;50.91;100603.41;5029586;28;20025;-59
2021/03/07 09:27:38;;;;;;;;;;;;;;;22.23;49.63;100599.75;5029382;28;19968;-57
2021/03/07 09:30:07;;;;;;;;;;;;;;;22.46;49.03;100602.91;5030494;28;20012;-58
2021/03/07 09:32:37;;;;;;;;;;;;;;;22.69;48.82;100608.84;5028678;28;19967;-58
2021/03/07 09:35:24;;;;;;;;;;;;;;;22.78;48.67;100603.00;5029717;28;19921;-58
2021/03/07 09:38:03;;;;;;;;;;;;;;;22.84;49.02;100603.59;5025714;28;19921;-60
2021/03/07 09:40:40;;;;;;;;;;;;;;;23.11;48.13;100599.94;5028989;28;19955;-58
2021/03/07 09:43:07;;;;;;;;;;;;;;;23.39;47.29;100602.72;5029467;28;20028;-60
2021/03/07 09:45:37;;;;;;;;;;;;;;;23.68;46.60;100597.78;5028614;28;20016;-59
2021/03/07 09:48:14;;;;;;;;;;;;;;;23.72;46.35;100600.72;5029187;28;20279;-59
2021/03/07 09:50:41;;;;;;;;;;;;;;;23.62;46.36;100597.22;5029357;28;19953;-58
2021/03/07 09:53:08;;;;;;;;;;;;;;;23.67;46.52;100598.13;5029401;28;20215;-59
2021/03/07 09:55:36;;;;;;;;;;;;;;;23.89;45.84;100595.44;5029254;28;19932;-57
2021/03/07 09:58:03;;;;;;;;;;;;;;;24.20;45.49;100590.88;5029258;28;19947;-58
2021/03/07 10:00:30;;;;;;;;;;;;;;;24.45;45.05;100582.94;5027584;28;19921;-58
2021/03/07 10:02:56;;;;;;;;;;;;;;;24.49;43.57;100589.53;5029264;28;19936;-58
2021/03/07 10:05:23;;;;;;;;;;;;;;;24.63;43.71;100589.00;5029014;28;20378;-59
2021/03/07 10:07:49;;;;;;;;;;;;;;;24.80;43.15;100587.75;5028633;28;19921;-58
2021/03/07 10:10:23;;;;;;;;;;;;;;;24.83;42.99;100581.28;5028448;28;20313;-58
2021/03/07 10:12:56;;;;;;;;;;;;;;;25.11;42.90;100588.75;5029269;28;20015;-58
2021/03/07 10:15:29;;;;;;;;;;;;;;;25.29;42.29;100587.91;5028858;28;19925;-59
2021/03/07 10:17:57;;;;;;;;;;;;;;;25.45;41.92;100584.13;5029510;28;19921;-57
2021/03/07 10:20:23;;;;;;;;;;;;;;;25.42;42.15;100584.88;5029674;28;19925;-59
2021/03/07 10:22:54;;;;;;;;;;;;;;;25.50;41.78;100586.63;5027659;28;21867;-58
2021/03/07 10:25:22;;;;;;;;;;;;;;;25.41;41.79;100583.22;5024596;28;19941;-58
2021/03/07 10:27:56;;;;;;;;;;;;;;;25.32;41.76;100582.66;5022719;28;19925;-59
2021/03/07 10:30:37;;;;;;;;;;;;;;;25.42;41.61;100579.16;5023691;28;19929;-58
2021/03/07 10:33:22;;;;;;;;;;;;;;;25.47;41.20;100581.69;5026940;28;20007;-59
2021/03/07 10:35:59;;;;;;;;;;;;;;;25.28;41.95;100586.25;5016397;28;20425;-59
2021/03/07 10:38:25;;;;;;;;;;;;;;;25.44;41.50;100576.75;5018820;28;20350;-66
2021/03/07 10:41:24;;;;;;;;;;;;;;;25.52;40.79;100570.75;5070894;27;19932;-66
2021/03/07 10:46:25;;;;;;;;;;;;;;;25.60;39.06;100573.75;5097823;27;19929;-58
2021/03/07 10:48:53;;;;;;;;;;;;;;;25.47;40.48;100570.25;5055619;27;78056;-58
2021/03/07 10:51:20;;;;;;;;;;;;;;;25.75;40.41;100573.59;5045478;28;19925;-58
2021/03/07 10:53:46;;;;;;;;;;;;;;;25.82;39.62;100572.13;5046274;28;19931;-58
2021/03/07 10:56:12;;;;;;;;;;;;;;;25.78;39.90;100569.16;5044701;28;19925;-59
2021/03/07 10:58:38;;;;;;;;;;;;;;;25.84;40.36;100566.81;5046099;28;19928;-58
2021/03/07 11:01:05;;;;;;;;;;;;;;;25.79;39.79;100569.97;5046346;28;19929;-58
2021/03/07 11:03:32;;;;;;;;;;;;;;;25.79;40.33;100558.53;5045529;28;20028;-58
2021/03/07 11:05:58;;;;;;;;;;;;;;;26.09;39.90;100562.31;5044992;28;19929;-56
2021/03/07 11:08:24;;;;;;;;;;;;;;;26.23;39.77;100562.53;5041888;28;19925;-58
2021/03/07 11:10:50;;;;;;;;;;;;;;;26.27;39.20;100568.28;5036281;28;19929;-59
2021/03/07 11:13:19;;;;;;;;;;;;;;;25.47;40.06;100558.81;5040186;28;19929;-58
2021/03/07 11:15:45;;;;;;;;;;;;;;;24.80;40.66;100562.84;5039677;28;20290;-55
2021/03/07 11:18:12;;;;;;;;;;;;;;;24.74;40.94;100555.78;5037679;28;19944;-58
2021/03/07 11:20:38;;;;;;;;;;;;;;;25.12;40.38;100547.56;5037468;28;19968;-58
2021/03/07 11:23:04;;;;;;;;;;;;;;;25.56;40.19;100550.81;5038621;28;19941;-56
2021/03/07 11:25:30;;;;;;;;;;;;;;;25.90;40.14;100546.06;5040617;28;19948;-57
2021/03/07 11:27:57;;;;;;;;;;;;;;;26.77;38.19;100550.94;5035854;28;19925;-58
2021/03/07 11:30:23;;;;;;;;;;;;;;;28.12;36.99;100545.69;5041534;28;19929;-59
2021/03/07 11:32:49;;;;;;;;;;;;;;;28.40;36.15;100547.91;5034265;28;20019;-57
2021/03/07 11:35:15;;;;;;;;;;;;;;;27.71;36.80;100544.97;5048197;28;19968;-58
2021/03/07 11:37:45;;;;;;;;;;;;;;;27.51;38.05;100545.19;5038240;28;19928;-56
2021/03/07 11:40:11;;;;;;;;;;;;;;;27.47;37.01;100538.63;5037495;28;19933;-58
2021/03/07 11:42:42;;;;;;;;;;;;;;;27.61;37.34;100533.00;5044893;28;19925;-58
2021/03/07 11:45:12;;;;;;;;;;;;;;;27.65;37.45;100533.03;5058434;28;19994;-59
2021/03/07 11:47:41;;;;;;;;;;;;;;;27.74;36.99;100529.81;5040504;28;19936;-56
2021/03/07 11:50:10;;;;;;;;;;;;;;;27.81;36.72;100530.72;5038074;28;19932;-57
2021/03/07 11:52:36;;;;;;;;;;;;;;;27.57;37.01;100529.28;5040179;28;19932;-56
2021/03/07 11:55:02;;;;;;;;;;;;;;;27.94;36.55;100528.34;5040897;28;19930;-57
2021/03/07 11:57:29;;;;;;;;;;;;;;;28.45;35.27;100524.56;5029667;28;19929;-56
2021/03/07 11:59:55;;;;;;;;;;;;;;;29.01;34.54;100517.38;5027541;28;19951;-56
2021/03/07 12:02:21;;;;;;;;;;;;;;;29.09;33.67;100520.25;5027728;28;20301;-57
2021/03/07 12:04:47;;;;;;;;;;;;;;;29.41;33.04;100523.19;5026087;28;19936;-58
2021/03/07 12:07:13;;;;;;;;;;;;;;;29.63;32.28;100515.41;5023061;28;19936;-56
2021/03/07 12:09:40;;;;;;;;;;;;;;;29.98;32.63;100524.00;5029247;28;20301;-57
2021/03/07 12:12:06;;;;;;;;;;;;;;;30.21;32.35;100519.84;5027072;28;19931;-59
2021/03/07 12:14:33;;;;;;;;;;;;;;;30.57;31.49;100516.84;5025128;28;19935;-59
2021/03/07 12:16:59;;;;;;;;;;;;;;;30.84;31.12;100517.16;5026235;28;19925;-54
2021/03/07 12:19:28;;;;;;;;;;;;;;;31.27;30.80;100517.66;5025971;28;19979;-57
2021/03/07 12:21:54;;;;;;;;;;;;;;;31.68;30.10;100519.84;5024774;28;20016;-58
2021/03/07 12:24:20;;;;;;;;;;;;;;;32.04;29.33;100519.53;5028864;28;19944;-56
2021/03/07 12:26:47;;;;;;;;;;;;;;;32.19;29.07;100515.22;5028764;28;20297;-58
2021/03/07 12:29:13;;;;;;;;;;;;;;;32.15;28.39;100522.31;5029502;28;20016;-57
2021/03/07 12:31:39;;;;;;;;;;;;;;;31.86;29.31;100517.63;5028311;28;19931;-57
2021/03/07 12:34:05;;;;;;;;;;;;;;;31.42;29.37;100511.81;5025551;28;20456;-58
2021/03/07 12:36:32;;;;;;;;;;;;;;;30.03;30.75;100508.34;5026014;28;19925;-58
2021/03/07 12:39:00;;;;;;;;;;;;;;;30.52;30.50;100511.50;5028915;28;19956;-58
2021/03/07 12:41:28;;;;;;;;;;;;;;;31.40;28.88;100500.72;5021215;28;19933;-58
2021/03/07 12:43:54;;;;;;;;;;;;;;;31.66;28.98;100496.38;5022037;28;19925;-58